Time;durP1;ratioP1;P1;durP2;ratioP2;P2;SDS_P1;SDS_P2;PMS_P1;PMS_P2;Temp;Humidity;BMP_temperature;BMP_pressure;BME280_temperature;BME280_humidity;BME280_pressure;Samples;Min_cycle;Max_cycle;Signal;HPM_P1;HPM_P2
2023/07/22 00:01:14;;;;;;;0.90;0.90;;;;;;;;;;10107672;28;21497;-73
2023/07/22 00:06:15;;;;;;;0.75;0.75;;;;;;;;;;10140782;28;20444;-73
2023/07/22 00:11:16;;;;;;;0.47;0.47;;;;;;;;;;10107817;28;20231;-73
2023/07/22 00:16:17;;;;;;;0.60;0.60;;;;;;;;;;10114404;28;20754;-72
2023/07/22 00:21:18;;;;;;;0.50;0.50;;;;;;;;;;10117672;28;20350;-73
2023/07/22 00:26:19;;;;;;;0.60;0.60;;;;;;;;;;10117491;28;22652;-74
2023/07/22 00:31:21;;;;;;;0.70;0.70;;;;;;;;;;10103424;28;20257;-74
2023/07/22 00:36:22;;;;;;;0.75;0.75;;;;;;;;;;10132749;28;21048;-72
2023/07/22 00:41:23;;;;;;;0.90;0.90;;;;;;;;;;10102094;28;20273;-73
2023/07/22 00:46:24;;;;;;;0.95;0.95;;;;;;;;;;10107469;28;20319;-74
2023/07/22 00:51:25;;;;;;;1.08;1.00;;;;;;;;;;10111889;28;20847;-73
2023/07/22 00:56:26;;;;;;;1.30;1.30;;;;;;;;;;10118689;28;20525;-72
2023/07/22 01:01:28;;;;;;;1.42;1.30;;;;;;;;;;10094984;28;20212;-72
2023/07/22 01:06:30;;;;;;;1.85;1.48;;;;;;;;;;10065197;28;21680;-71
2023/07/22 01:11:31;;;;;;;1.15;1.15;;;;;;;;;;10079797;28;20897;-72
2023/07/22 01:16:32;;;;;;;1.48;1.48;;;;;;;;;;10111352;28;20219;-72
2023/07/22 01:21:33;;;;;;;1.10;1.10;;;;;;;;;;10110116;28;20211;-74
2023/07/22 01:26:36;;;;;;;1.75;0.82;;;;;;;;;;10105012;28;20223;-75
2023/07/22 01:31:38;;;;;;;0.98;0.98;;;;;;;;;;10086770;28;21074;-73
2023/07/22 01:36:39;;;;;;;0.93;0.93;;;;;;;;;;10061422;28;22073;-71
2023/07/22 01:41:40;;;;;;;0.95;0.95;;;;;;;;;;10077948;28;20622;-71
2023/07/22 01:46:41;;;;;;;1.30;1.30;;;;;;;;;;10082810;28;20250;-71
2023/07/22 01:51:43;;;;;;;1.25;1.00;;;;;;;;;;10078357;28;20227;-73
2023/07/22 01:56:44;;;;;;;0.75;0.75;;;;;;;;;;10080588;28;20627;-72
2023/07/22 02:01:45;;;;;;;1.08;1.08;;;;;;;;;;10093103;28;20259;-73
2023/07/22 02:06:46;;;;;;;3.15;1.17;;;;;;;;;;10092429;28;20246;-70
2023/07/22 02:11:48;;;;;;;1.17;1.10;;;;;;;;;;10071614;28;20542;-72
2023/07/22 02:16:49;;;;;;;1.13;1.10;;;;;;;;;;10062648;28;20311;-74
2023/07/22 02:21:50;;;;;;;1.00;1.00;;;;;;;;;;10069289;28;20856;-73
2023/07/22 02:26:51;;;;;;;1.38;1.35;;;;;;;;;;10087709;28;20365;-73
2023/07/22 02:31:52;;;;;;;1.05;1.00;;;;;;;;;;10073065;28;20635;-70
2023/07/22 02:36:53;;;;;;;1.63;1.38;;;;;;;;;;10080442;28;20220;-71
2023/07/22 02:41:54;;;;;;;0.77;0.77;;;;;;;;;;10066518;28;20220;-72
2023/07/22 02:46:55;;;;;;;1.48;1.48;;;;;;;;;;10079873;28;20369;-74
2023/07/22 02:51:56;;;;;;;1.08;1.08;;;;;;;;;;10069150;28;20438;-74
2023/07/22 02:56:57;;;;;;;1.48;1.38;;;;;;;;;;10073462;28;20300;-71
2023/07/22 03:01:58;;;;;;;1.27;1.27;;;;;;;;;;10086555;28;21840;-72
2023/07/22 03:07:00;;;;;;;1.65;1.65;;;;;;;;;;10066126;28;20723;-73
2023/07/22 03:12:01;;;;;;;2.55;1.60;;;;;;;;;;10072225;28;20224;-70
2023/07/22 03:17:03;;;;;;;1.42;1.42;;;;;;;;;;10075887;28;21040;-72
2023/07/22 03:22:05;;;;;;;1.70;1.60;;;;;;;;;;10069359;28;20766;-71
2023/07/22 03:27:07;;;;;;;1.90;1.80;;;;;;;;;;10079478;28;20275;-72
2023/07/22 03:32:08;;;;;;;2.33;2.15;;;;;;;;;;10072242;28;20822;-73
2023/07/22 03:37:10;;;;;;;2.42;2.20;;;;;;;;;;10067064;28;21759;-73
2023/07/22 03:42:11;;;;;;;1.65;1.55;;;;;;;;;;10054645;28;20336;-72
2023/07/22 03:47:12;;;;;;;1.83;1.73;;;;;;;;;;10065162;28;20219;-73
2023/07/22 03:52:14;;;;;;;4.32;1.83;;;;;;;;;;10057897;28;21868;-72
2023/07/22 03:57:15;;;;;;;2.05;1.40;;;;;;;;;;10068025;28;20212;-72
2023/07/22 04:02:16;;;;;;;1.70;1.52;;;;;;;;;;10064321;28;23260;-73
2023/07/22 04:07:17;;;;;;;1.92;1.55;;;;;;;;;;10079853;28;21386;-72
2023/07/22 04:12:18;;;;;;;3.25;1.98;;;;;;;;;;10079976;28;20222;-71
2023/07/22 04:17:19;;;;;;;1.73;1.63;;;;;;;;;;10070440;28;21382;-74
2023/07/22 04:22:21;;;;;;;2.05;1.83;;;;;;;;;;10081247;28;22941;-71
2023/07/22 04:27:22;;;;;;;2.00;1.90;;;;;;;;;;10082295;28;20227;-72
2023/07/22 04:32:23;;;;;;;1.98;1.88;;;;;;;;;;10089359;28;20228;-72
2023/07/22 04:37:25;;;;;;;1.80;1.70;;;;;;;;;;10085191;28;22012;-73
2023/07/22 04:42:27;;;;;;;1.73;1.63;;;;;;;;;;10116340;28;20655;-73
2023/07/22 04:47:28;;;;;;;6.22;2.53;;;;;;;;;;10115248;28;20270;-73
2023/07/22 04:52:29;;;;;;;3.00;2.15;;;;;;;;;;10112674;28;20228;-72
2023/07/22 04:57:30;;;;;;;1.95;1.85;;;;;;;;;;10101411;28;22381;-74
2023/07/22 05:02:31;;;;;;;1.77;1.65;;;;;;;;;;10116535;28;20219;-72
2023/07/22 05:07:33;;;;;;;4.25;2.60;;;;;;;;;;10117840;28;22252;-72
2023/07/22 05:12:34;;;;;;;2.28;2.15;;;;;;;;;;10112387;28;21239;-74
2023/07/22 05:17:35;;;;;;;1.55;1.45;;;;;;;;;;10121810;28;20346;-72
2023/07/22 05:22:36;;;;;;;5.43;2.15;;;;;;;;;;10110193;28;23309;-72
2023/07/22 05:27:38;;;;;;;2.42;2.22;;;;;;;;;;10112408;28;20230;-73
2023/07/22 05:32:39;;;;;;;1.55;1.50;;;;;;;;;;10127481;28;21307;-75
2023/07/22 05:37:40;;;;;;;1.83;1.73;;;;;;;;;;10120060;28;20725;-73
2023/07/22 05:42:41;;;;;;;2.63;1.48;;;;;;;;;;10108259;28;20212;-74
2023/07/22 05:47:42;;;;;;;1.63;1.52;;;;;;;;;;10122122;28;20970;-74
2023/07/22 05:52:43;;;;;;;1.90;1.80;;;;;;;;;;10121424;28;20970;-74
2023/07/22 05:57:44;;;;;;;2.95;1.95;;;;;;;;;;10120134;28;20649;-73
2023/07/22 06:02:45;;;;;;;1.88;1.77;;;;;;;;;;10105500;28;20759;-72
2023/07/22 06:07:46;;;;;;;2.38;1.90;;;;;;;;;;10133817;28;20228;-73
2023/07/22 06:12:48;;;;;;;1.70;1.58;;;;;;;;;;10120197;28;20236;-73
2023/07/22 06:17:49;;;;;;;6.43;2.03;;;;;;;;;;10117762;28;20219;-73
2023/07/22 06:22:50;;;;;;;3.92;1.42;;;;;;;;;;10120833;28;20220;-76
2023/07/22 06:27:53;;;;;;;2.17;1.55;;;;;;;;;;10112577;28;20289;-73
2023/07/22 06:32:55;;;;;;;1.77;1.67;;;;;;;;;;10117345;28;20409;-74
2023/07/22 06:37:56;;;;;;;6.40;1.77;;;;;;;;;;10115925;28;20222;-73
2023/07/22 06:42:57;;;;;;;2.30;1.27;;;;;;;;;;10118485;28;20222;-73
2023/07/22 06:47:58;;;;;;;1.98;1.83;;;;;;;;;;10111372;28;21305;-74
2023/07/22 06:52:59;;;;;;;1.70;1.42;;;;;;;;;;10111381;28;20646;-73
2023/07/22 06:58:00;;;;;;;1.77;1.67;;;;;;;;;;10117697;28;21560;-73
2023/07/22 07:03:01;;;;;;;1.40;1.30;;;;;;;;;;10115689;28;20593;-74
2023/07/22 07:08:02;;;;;;;4.68;1.40;;;;;;;;;;10113471;28;20888;-73
2023/07/22 07:13:03;;;;;;;1.30;1.30;;;;;;;;;;10139881;28;21313;-75
2023/07/22 07:18:05;;;;;;;2.47;1.48;;;;;;;;;;10135386;28;20250;-73
2023/07/22 07:23:06;;;;;;;2.13;1.15;;;;;;;;;;10106216;28;20482;-74
2023/07/22 07:28:07;;;;;;;1.33;1.17;;;;;;;;;;10136259;28;20293;-74
2023/07/22 07:33:08;;;;;;;1.90;1.25;;;;;;;;;;10120273;28;20835;-75
2023/07/22 07:38:09;;;;;;;1.70;1.60;;;;;;;;;;10111593;28;20219;-74
2023/07/22 07:43:10;;;;;;;1.33;1.33;;;;;;;;;;10108680;28;20215;-73
2023/07/22 07:48:11;;;;;;;1.90;1.45;;;;;;;;;;10120361;28;22461;-76
2023/07/22 07:53:12;;;;;;;1.73;0.90;;;;;;;;;;10098769;28;20631;-75
2023/07/22 07:58:13;;;;;;;1.15;1.05;;;;;;;;;;10110438;28;20757;-73
2023/07/22 08:03:15;;;;;;;1.15;1.15;;;;;;;;;;10109209;28;20411;-74
2023/07/22 08:08:16;;;;;;;1.13;1.13;;;;;;;;;;10103471;28;20218;-74
2023/07/22 08:13:17;;;;;;;3.90;1.25;;;;;;;;;;10104920;28;20952;-77
2023/07/22 08:18:18;;;;;;;1.08;1.08;;;;;;;;;;10088784;28;21773;-73
2023/07/22 08:23:19;;;;;;;1.20;1.20;;;;;;;;;;10107687;28;20260;-74
2023/07/22 08:28:20;;;;;;;2.22;1.33;;;;;;;;;;10122975;28;22263;-75
2023/07/22 08:33:22;;;;;;;1.15;1.15;;;;;;;;;;10108532;28;20385;-76
2023/07/22 08:38:23;;;;;;;1.27;1.23;;;;;;;;;;10098553;28;20212;-73
2023/07/22 08:43:24;;;;;;;1.27;1.20;;;;;;;;;;10116912;28;20219;-75
2023/07/22 08:48:27;;;;;;;2.10;1.60;;;;;;;;;;10116879;28;20220;-75
2023/07/22 08:53:28;;;;;;;1.30;1.30;;;;;;;;;;10094059;28;21277;-74
2023/07/22 08:58:30;;;;;;;1.10;1.10;;;;;;;;;;10106849;28;20215;-74
2023/07/22 09:03:31;;;;;;;2.35;1.00;;;;;;;;;;10119392;28;22936;-74
2023/07/22 09:08:32;;;;;;;1.10;1.10;;;;;;;;;;10104418;28;20219;-75
2023/07/22 09:13:34;;;;;;;4.47;1.45;;;;;;;;;;10115954;28;20620;-74
2023/07/22 09:18:35;;;;;;;1.10;1.10;;;;;;;;;;10103406;28;20207;-75
2023/07/22 09:23:38;;;;;;;1.00;1.00;;;;;;;;;;10137879;28;20904;-74
2023/07/22 09:28:51;;;;;;;1.02;1.02;;;;;;;;;;10127829;28;20608;-75
2023/07/22 09:33:56;;;;;;;1.65;1.50;;;;;;;;;;10117280;28;20333;-75
2023/07/22 09:39:03;;;;;;;1.58;1.48;;;;;;;;;;10107289;28;20934;-74
2023/07/22 09:44:04;;;;;;;3.33;1.70;;;;;;;;;;10114332;28;20230;-75
2023/07/22 09:49:06;;;;;;;1.40;1.30;;;;;;;;;;10112811;28;20246;-74
2023/07/22 09:54:08;;;;;;;9.25;1.63;;;;;;;;;;10116784;28;21008;-75
2023/07/22 09:59:10;;;;;;;1.17;1.17;;;;;;;;;;10117683;28;21641;-75
2023/07/22 10:04:11;;;;;;;3.25;1.40;;;;;;;;;;10125603;28;20230;-75
2023/07/22 10:09:13;;;;;;;1.38;1.38;;;;;;;;;;10119874;28;20442;-73
2023/07/22 10:14:14;;;;;;;1.20;1.20;;;;;;;;;;10109798;28;22357;-75
2023/07/22 10:19:16;;;;;;;1.20;1.20;;;;;;;;;;10121683;28;20228;-74
2023/07/22 10:24:17;;;;;;;2.30;1.70;;;;;;;;;;10146038;28;22240;-74
2023/07/22 10:29:19;;;;;;;1.65;1.55;;;;;;;;;;10111032;28;20247;-73
2023/07/22 10:34:26;;;;;;;1.70;1.60;;;;;;;;;;10127847;28;21372;-76
2023/07/22 10:39:30;;;;;;;1.80;1.70;;;;;;;;;;10132493;28;21658;-74
2023/07/22 10:44:33;;;;;;;1.92;1.80;;;;;;;;;;10116785;28;20773;-76
2023/07/22 10:49:48;;;;;;;2.25;2.15;;;;;;;;;;10120009;28;20484;-76
2023/07/22 10:54:49;;;;;;;2.95;2.75;;;;;;;;;;10121518;28;21386;-76
2023/07/22 10:59:51;;;;;;;3.60;2.67;;;;;;;;;;10112227;28;21553;-75
2023/07/22 11:04:52;;;;;;;1.92;1.83;;;;;;;;;;10105010;28;20549;-75
2023/07/22 11:09:54;;;;;;;2.55;2.35;;;;;;;;;;10106474;28;22635;-75
2023/07/22 11:15:05;;;;;;;2.97;2.40;;;;;;;;;;10129342;28;20377;-73
2023/07/22 11:20:07;;;;;;;2.13;1.92;;;;;;;;;;10094305;28;20984;-71
2023/07/22 11:25:08;;;;;;;2.53;2.38;;;;;;;;;;10113138;28;20208;-75
2023/07/22 11:30:11;;;;;;;1.70;1.70;;;;;;;;;;10105974;28;20945;-75
2023/07/22 11:35:12;;;;;;;1.50;1.40;;;;;;;;;;10111855;28;20224;-76
2023/07/22 11:40:13;;;;;;;1.50;1.38;;;;;;;;;;10121565;28;21753;-73
2023/07/22 11:45:14;;;;;;;0.82;0.82;;;;;;;;;;10134082;28;20879;-73
2023/07/22 11:50:16;;;;;;;0.80;0.80;;;;;;;;;;10110874;28;20191;-75
2023/07/22 11:55:24;;;;;;;0.50;0.50;;;;;;;;;;10096619;28;20211;-74
2023/07/22 12:00:25;;;;;;;0.90;0.50;;;;;;;;;;10097635;28;20562;-74
2023/07/22 12:05:26;;;;;;;1.10;0.85;;;;;;;;;;10134772;28;20519;-74
2023/07/22 12:10:27;;;;;;;0.73;0.68;;;;;;;;;;10116872;28;20253;-75
2023/07/22 12:15:28;;;;;;;0.68;0.68;;;;;;;;;;10110987;28;20218;-78
2023/07/22 12:20:30;;;;;;;0.70;0.70;;;;;;;;;;10115922;28;20248;-77
2023/07/22 12:25:32;;;;;;;0.80;0.80;;;;;;;;;;10111260;28;21396;-77
2023/07/22 12:30:33;;;;;;;1.08;0.75;;;;;;;;;;10145464;28;21303;-78
2023/07/22 12:35:35;;;;;;;1.00;1.00;;;;;;;;;;10114365;28;20435;-77
2023/07/22 12:40:36;;;;;;;0.85;0.85;;;;;;;;;;10148170;28;20215;-77
2023/07/22 12:45:37;;;;;;;3.33;0.80;;;;;;;;;;10114414;28;20285;-77
2023/07/22 12:50:38;;;;;;;1.17;1.00;;;;;;;;;;10137914;28;21228;-77
2023/07/22 12:55:39;;;;;;;1.02;0.82;;;;;;;;;;10114396;28;20266;-77
2023/07/22 13:00:40;;;;;;;1.23;1.23;;;;;;;;;;10118493;28;20638;-76
2023/07/22 13:05:41;;;;;;;1.50;1.50;;;;;;;;;;10104158;28;20316;-73
2023/07/22 13:10:44;;;;;;;1.40;1.30;;;;;;;;;;10108355;28;20744;-76
2023/07/22 13:15:45;;;;;;;1.10;1.10;;;;;;;;;;10111040;28;20570;-75
2023/07/22 13:20:46;;;;;;;1.30;0.82;;;;;;;;;;10123692;28;20215;-74
2023/07/22 13:25:47;;;;;;;1.25;0.93;;;;;;;;;;10117749;28;21126;-76
2023/07/22 13:30:48;;;;;;;1.10;1.10;;;;;;;;;;10070622;28;21156;-77
2023/07/22 13:35:50;;;;;;;1.55;1.55;;;;;;;;;;10082721;28;21374;-75
2023/07/22 13:40:51;;;;;;;1.20;1.20;;;;;;;;;;10081831;28;20496;-75
2023/07/22 13:45:52;;;;;;;1.17;1.17;;;;;;;;;;10079748;28;20339;-74
2023/07/22 13:50:53;;;;;;;1.00;1.00;;;;;;;;;;10069498;28;20532;-75
2023/07/22 13:55:54;;;;;;;1.08;1.08;;;;;;;;;;10070549;28;21816;-75
2023/07/22 14:00:55;;;;;;;1.20;1.20;;;;;;;;;;10075166;28;20235;-74
2023/07/22 14:05:57;;;;;;;1.67;1.50;;;;;;;;;;10066639;28;20294;-76
2023/07/22 14:10:58;;;;;;;1.40;1.40;;;;;;;;;;10088790;28;20619;-75
2023/07/22 14:15:59;;;;;;;1.73;1.63;;;;;;;;;;10088447;28;22643;-75
2023/07/22 14:21:00;;;;;;;1.58;1.48;;;;;;;;;;10102602;28;20305;-72
2023/07/22 14:26:01;;;;;;;1.00;1.00;;;;;;;;;;10095258;28;20305;-74
2023/07/22 14:31:03;;;;;;;1.10;1.00;;;;;;;;;;10088531;28;20857;-75
2023/07/22 14:36:05;;;;;;;1.08;1.08;;;;;;;;;;10113640;28;21120;-76
2023/07/22 14:41:06;;;;;;;1.45;1.35;;;;;;;;;;10113470;28;20266;-73
2023/07/22 14:46:07;;;;;;;1.70;1.60;;;;;;;;;;10073905;28;22043;-75
2023/07/22 14:51:08;;;;;;;1.30;1.30;;;;;;;;;;10100364;28;20219;-76
2023/07/22 14:56:09;;;;;;;1.63;1.17;;;;;;;;;;10106751;28;20847;-75
2023/07/22 15:01:10;;;;;;;1.58;1.40;;;;;;;;;;10079868;28;20414;-75
2023/07/22 15:06:11;;;;;;;1.35;1.25;;;;;;;;;;10115715;28;20231;-74
2023/07/22 15:11:12;;;;;;;3.15;1.35;;;;;;;;;;10084688;28;20693;-73
2023/07/22 15:16:13;;;;;;;1.35;1.35;;;;;;;;;;10115017;28;21432;-74
2023/07/22 15:21:14;;;;;;;1.63;1.52;;;;;;;;;;10105527;28;20675;-72
2023/07/22 15:26:15;;;;;;;1.65;1.65;;;;;;;;;;10080868;28;21128;-75
2023/07/22 15:31:21;;;;;;;1.92;1.83;;;;;;;;;;10090465;28;21759;-71
2023/07/22 15:36:22;;;;;;;1.33;1.30;;;;;;;;;;10112489;28;20368;-76
2023/07/22 15:41:23;;;;;;;1.05;1.05;;;;;;;;;;10104848;28;21493;-75
2023/07/22 15:46:24;;;;;;;3.72;1.55;;;;;;;;;;10112222;28;20287;-74
2023/07/22 15:51:25;;;;;;;2.03;1.92;;;;;;;;;;10105724;28;20226;-74
2023/07/22 15:56:26;;;;;;;1.85;1.50;;;;;;;;;;10111920;28;20234;-73
2023/07/22 16:01:27;;;;;;;2.10;1.83;;;;;;;;;;10111254;28;20746;-74
2023/07/22 16:06:29;;;;;;;1.50;1.50;;;;;;;;;;10101464;28;20224;-74
2023/07/22 16:11:30;;;;;;;1.30;1.20;;;;;;;;;;10107907;28;20411;-73
2023/07/22 16:16:31;;;;;;;1.33;1.33;;;;;;;;;;10088918;28;20234;-74
2023/07/22 16:21:33;;;;;;;1.50;1.50;;;;;;;;;;10113493;28;20741;-73
2023/07/22 16:26:34;;;;;;;1.42;1.33;;;;;;;;;;10119065;28;20360;-73
2023/07/22 16:31:35;;;;;;;1.52;1.42;;;;;;;;;;10099518;28;21386;-73
2023/07/22 16:36:36;;;;;;;1.48;1.48;;;;;;;;;;10114174;28;22189;-73
2023/07/22 16:41:37;;;;;;;1.23;1.23;;;;;;;;;;10104945;28;20769;-73
2023/07/22 16:46:38;;;;;;;1.50;1.50;;;;;;;;;;10083504;28;20223;-73
2023/07/22 16:51:40;;;;;;;1.17;1.17;;;;;;;;;;10088007;28;20255;-75
2023/07/22 16:56:41;;;;;;;1.30;1.20;;;;;;;;;;10081701;28;20612;-73
2023/07/22 17:01:42;;;;;;;1.88;1.75;;;;;;;;;;10096786;28;20308;-72
2023/07/22 17:06:43;;;;;;;1.80;1.70;;;;;;;;;;10109294;28;20219;-72
2023/07/22 17:11:44;;;;;;;1.73;1.73;;;;;;;;;;10116140;28;20541;-74
2023/07/22 17:16:45;;;;;;;1.40;1.40;;;;;;;;;;10084859;28;20826;-75
2023/07/22 17:21:46;;;;;;;1.35;1.35;;;;;;;;;;10120515;28;20889;-72
2023/07/22 17:26:47;;;;;;;1.42;1.33;;;;;;;;;;10087520;28;20357;-74
2023/07/22 17:31:48;;;;;;;1.60;1.60;;;;;;;;;;10105907;28;20224;-72
2023/07/22 17:36:49;;;;;;;2.90;1.50;;;;;;;;;;10117995;28;20401;-72
2023/07/22 17:41:51;;;;;;;1.50;1.40;;;;;;;;;;10101595;28;20667;-72
2023/07/22 17:46:52;;;;;;;1.08;1.08;;;;;;;;;;10109814;28;20843;-71
2023/07/22 17:51:53;;;;;;;1.50;1.35;;;;;;;;;;10108259;28;20559;-73
2023/07/22 17:56:54;;;;;;;1.48;1.40;;;;;;;;;;10135914;28;20226;-72
2023/07/22 18:01:55;;;;;;;1.15;1.15;;;;;;;;;;10089680;28;20811;-72
2023/07/22 18:06:56;;;;;;;1.20;1.20;;;;;;;;;;10115697;28;20450;-72
2023/07/22 18:11:57;;;;;;;1.13;1.13;;;;;;;;;;10084411;28;20224;-71
2023/07/22 18:16:58;;;;;;;11.20;1.40;;;;;;;;;;10072628;28;20695;-72
2023/07/22 18:21:59;;;;;;;1.48;1.45;;;;;;;;;;10074257;28;20314;-72
2023/07/22 18:27:00;;;;;;;1.60;1.50;;;;;;;;;;10071039;28;21032;-73
2023/07/22 18:32:01;;;;;;;1.30;1.30;;;;;;;;;;10073068;28;20234;-73
2023/07/22 18:37:03;;;;;;;1.23;1.13;;;;;;;;;;10077598;28;20438;-72
2023/07/22 18:42:04;;;;;;;1.05;1.05;;;;;;;;;;10064027;28;20648;-71
2023/07/22 18:47:05;;;;;;;1.00;1.00;;;;;;;;;;10070662;28;20226;-72
2023/07/22 18:52:07;;;;;;;1.40;1.30;;;;;;;;;;10067295;28;20648;-71
2023/07/22 18:57:08;;;;;;;1.55;1.52;;;;;;;;;;10074151;28;20679;-73
2023/07/22 19:02:09;;;;;;;1.23;1.23;;;;;;;;;;10083138;28;21134;-73
2023/07/22 19:07:10;;;;;;;1.50;1.40;;;;;;;;;;10070789;28;21479;-71
2023/07/22 19:12:12;;;;;;;1.73;1.63;;;;;;;;;;10107278;28;20736;-73
2023/07/22 19:17:13;;;;;;;4.10;2.53;;;;;;;;;;10108414;28;21586;-73
2023/07/22 19:22:14;;;;;;;1.25;1.15;;;;;;;;;;10088353;28;20242;-73
2023/07/22 19:27:15;;;;;;;1.45;1.38;;;;;;;;;;10118600;28;20427;-71
2023/07/22 19:32:16;;;;;;;1.55;1.42;;;;;;;;;;10099893;28;20916;-74
2023/07/22 19:37:17;;;;;;;1.25;1.25;;;;;;;;;;10110673;28;21053;-74
2023/07/22 19:42:18;;;;;;;2.15;1.35;;;;;;;;;;10092690;28;20238;-74
2023/07/22 19:47:19;;;;;;;1.63;0.98;;;;;;;;;;10102272;28;20886;-71
2023/07/22 19:52:20;;;;;;;6.18;1.58;;;;;;;;;;10105174;28;20230;-74
2023/07/22 19:57:21;;;;;;;2.65;1.45;;;;;;;;;;10108248;28;20618;-73
2023/07/22 20:02:22;;;;;;;1.45;1.35;;;;;;;;;;10102686;28;20220;-71
2023/07/22 20:07:23;;;;;;;2.88;1.50;;;;;;;;;;10115064;28;20815;-74
2023/07/22 20:12:24;;;;;;;1.52;1.52;;;;;;;;;;10104183;28;20231;-75
2023/07/22 20:17:25;;;;;;;1.35;1.35;;;;;;;;;;10067495;28;20249;-72
2023/07/22 20:22:26;;;;;;;3.13;1.52;;;;;;;;;;10115263;28;20211;-73
2023/07/22 20:27:27;;;;;;;2.35;1.80;;;;;;;;;;10112237;28;20777;-71
2023/07/22 20:32:28;;;;;;;3.10;2.90;;;;;;;;;;10105678;28;20488;-73
2023/07/22 20:37:29;;;;;;;2.13;1.90;;;;;;;;;;10097271;28;20365;-74
2023/07/22 20:42:30;;;;;;;9.30;1.70;;;;;;;;;;10104463;28;20340;-74
2023/07/22 20:47:32;;;;;;;1.80;1.70;;;;;;;;;;10109647;28;20226;-73
2023/07/22 20:52:33;;;;;;;1.38;1.38;;;;;;;;;;10075268;28;20226;-73
2023/07/22 20:57:34;;;;;;;1.25;1.25;;;;;;;;;;10112783;28;20713;-73
2023/07/22 21:02:35;;;;;;;1.70;1.60;;;;;;;;;;10110531;28;20207;-72
2023/07/22 21:07:39;;;;;;;1.40;1.30;;;;;;;;;;10069982;28;20223;-73
2023/07/22 21:12:40;;;;;;;1.10;1.10;;;;;;;;;;10110083;28;20228;-71
2023/07/22 21:17:42;;;;;;;1.20;1.20;;;;;;;;;;10105644;28;22397;-74
2023/07/22 21:22:43;;;;;;;1.70;1.05;;;;;;;;;;10099367;28;20862;-73
2023/07/22 21:27:44;;;;;;;1.70;1.58;;;;;;;;;;10101462;28;21542;-72
2023/07/22 21:32:45;;;;;;;1.85;1.70;;;;;;;;;;10076522;28;20211;-74
2023/07/22 21:37:46;;;;;;;1.38;1.38;;;;;;;;;;10078316;28;20335;-71
2023/07/22 21:42:47;;;;;;;1.58;1.58;;;;;;;;;;10103725;28;20934;-73
2023/07/22 21:47:48;;;;;;;1.25;1.25;;;;;;;;;;10121216;28;20449;-74
2023/07/22 21:52:49;;;;;;;1.45;1.35;;;;;;;;;;10115277;28;20227;-72
2023/07/22 21:57:50;;;;;;;1.92;1.70;;;;;;;;;;10100643;28;20274;-73
2023/07/22 22:02:51;;;;;;;1.98;1.63;;;;;;;;;;10103456;28;21801;-71
2023/07/22 22:07:52;;;;;;;1.63;1.50;;;;;;;;;;10108276;28;20768;-71
2023/07/22 22:12:53;;;;;;;1.55;1.50;;;;;;;;;;10106433;28;20425;-71
2023/07/22 22:17:55;;;;;;;2.42;1.17;;;;;;;;;;10102058;28;20308;-74
2023/07/22 22:22:56;;;;;;;1.77;1.42;;;;;;;;;;10116896;28;20218;-72
2023/07/22 22:27:57;;;;;;;1.40;1.40;;;;;;;;;;10093674;28;20997;-71
2023/07/22 22:32:58;;;;;;;1.35;1.35;;;;;;;;;;10100768;28;20573;-70
2023/07/22 22:37:59;;;;;;;3.97;1.20;;;;;;;;;;10086274;28;20801;-71
2023/07/22 22:43:01;;;;;;;3.45;1.40;;;;;;;;;;10108374;28;20223;-74
2023/07/22 22:48:02;;;;;;;1.70;1.60;;;;;;;;;;10113197;28;20350;-72
2023/07/22 22:53:03;;;;;;;1.65;1.65;;;;;;;;;;10108004;28;20227;-72
2023/07/22 22:58:04;;;;;;;2.72;1.85;;;;;;;;;;10109830;28;22473;-71
2023/07/22 23:03:05;;;;;;;1.50;1.40;;;;;;;;;;10120451;28;21429;-73
2023/07/22 23:08:06;;;;;;;1.50;1.38;;;;;;;;;;10101485;28;20740;-73
2023/07/22 23:13:07;;;;;;;1.63;1.52;;;;;;;;;;10098995;28;20282;-72
2023/07/22 23:18:08;;;;;;;1.98;1.45;;;;;;;;;;10083284;28;20317;-72
2023/07/22 23:23:09;;;;;;;1.75;1.65;;;;;;;;;;10102719;28;21021;-71
2023/07/22 23:28:10;;;;;;;3.42;1.60;;;;;;;;;;10106240;28;20494;-73
2023/07/22 23:33:12;;;;;;;1.35;1.25;;;;;;;;;;10121263;28;20314;-71
2023/07/22 23:38:13;;;;;;;1.80;1.70;;;;;;;;;;10099489;28;20593;-72
2023/07/22 23:43:14;;;;;;;1.55;1.45;;;;;;;;;;10108771;28;20342;-72
2023/07/22 23:48:16;;;;;;;2.88;1.63;;;;;;;;;;10112559;28;20215;-72
2023/07/22 23:53:17;;;;;;;1.60;1.50;;;;;;;;;;10111578;28;20235;-71
2023/07/22 23:58:18;;;;;;;1.80;1.70;;;;;;;;;;10091912;28;21156;-72
